createdAt,value
2023-02-17T00:01:30.996Z,23.90
2023-02-17T00:04:01.350Z,22.07
2023-02-17T00:06:31.770Z,20.87
2023-02-17T00:09:01.888Z,21.70
2023-02-17T00:11:30.530Z,22.27
2023-02-17T00:14:00.242Z,24.80
2023-02-17T00:16:30.037Z,21.03
2023-02-17T00:19:02.360Z,21.47
2023-02-17T00:21:33.168Z,32.50
2023-02-17T00:24:01.830Z,25.00
2023-02-17T00:26:30.433Z,22.83
2023-02-17T00:29:00.188Z,24.60
2023-02-17T00:31:28.583Z,23.23
2023-02-17T00:33:57.805Z,21.83
2023-02-17T00:36:28.166Z,24.80
2023-02-17T00:38:58.652Z,22.17
2023-02-17T00:41:28.824Z,22.90
2023-02-17T00:43:57.416Z,22.17
2023-02-17T00:46:27.176Z,22.20
2023-02-17T00:48:55.799Z,22.27
2023-02-17T00:51:26.195Z,22.30
2023-02-17T00:53:54.421Z,26.97
2023-02-17T00:56:22.614Z,21.97
2023-02-17T00:58:50.844Z,24.10
2023-02-17T01:01:19.103Z,23.17
2023-02-17T01:03:47.363Z,24.67
2023-02-17T01:06:24.228Z,26.00
2023-02-17T01:08:54.222Z,24.50
2023-02-17T01:11:25.569Z,26.90
2023-02-17T01:13:54.183Z,31.20
2023-02-17T01:16:25.674Z,26.27
2023-02-17T01:18:54.081Z,24.77
2023-02-17T01:21:25.547Z,25.47
2023-02-17T01:23:57.598Z,25.87
2023-02-17T01:26:28.680Z,23.70
2023-02-17T01:28:57.193Z,24.40
2023-02-17T01:31:27.848Z,24.03
2023-02-17T01:33:57.767Z,25.20
2023-02-17T01:36:26.251Z,24.60
2023-02-17T01:38:55.926Z,24.77
2023-02-17T01:41:27.720Z,27.50
2023-02-17T01:44:22.036Z,25.37
2023-02-17T01:46:52.696Z,24.47
2023-02-17T01:49:30.295Z,24.20
2023-02-17T01:52:06.766Z,23.63
2023-02-17T01:54:42.459Z,23.57
2023-02-17T01:57:12.344Z,26.00
2023-02-17T01:59:43.646Z,26.43
2023-02-17T02:02:12.674Z,26.00
2023-02-17T02:04:44.467Z,26.10
2023-02-17T02:07:17.945Z,25.20
2023-02-17T02:09:52.189Z,25.60
2023-02-17T02:12:23.698Z,26.53
2023-02-17T02:14:53.238Z,25.60
2023-02-17T02:17:34.869Z,26.60
2023-02-17T02:20:35.285Z,25.47
2023-02-17T02:23:44.895Z,24.63
2023-02-17T02:26:59.879Z,23.97
2023-02-17T02:30:19.727Z,22.37
2023-02-17T02:33:04.640Z,24.50
2023-02-17T02:35:46.300Z,23.70
2023-02-17T02:38:21.704Z,23.00
2023-02-17T02:40:55.161Z,22.70
2023-02-17T02:43:24.894Z,22.83
2023-02-17T02:45:53.139Z,24.67
2023-02-17T02:48:22.839Z,27.00
2023-02-17T02:51:22.804Z,22.67
2023-02-17T02:54:04.982Z,25.23
2023-02-17T02:56:48.137Z,24.37
2023-02-17T02:59:29.884Z,25.77
2023-02-17T03:02:09.471Z,25.40
2023-02-17T03:04:45.340Z,28.07
2023-02-17T03:07:22.121Z,22.47
2023-02-17T03:09:52.625Z,24.37
2023-02-17T03:12:22.648Z,23.70
2023-02-17T03:14:54.700Z,23.57
2023-02-17T03:17:23.047Z,23.77
2023-02-17T03:19:53.012Z,22.37
2023-02-17T03:22:25.246Z,23.07
2023-02-17T03:24:53.539Z,25.47
2023-02-17T03:27:21.802Z,27.20
2023-02-17T03:29:50.081Z,24.47
2023-02-17T03:32:18.433Z,22.17
2023-02-17T03:34:46.788Z,22.43
2023-02-17T03:37:16.547Z,22.97
2023-02-17T03:39:44.829Z,22.43
2023-02-17T03:42:13.177Z,24.33
2023-02-17T03:44:41.496Z,23.00
2023-02-17T03:47:09.771Z,26.93
2023-02-17T03:49:38.061Z,27.23
2023-02-17T03:52:06.654Z,23.60
2023-02-17T03:54:36.289Z,23.80
2023-02-17T03:57:04.719Z,24.63
2023-02-17T03:59:32.952Z,22.53
2023-02-17T04:02:01.296Z,25.07
2023-02-17T04:04:29.642Z,26.27
2023-02-17T04:06:57.901Z,25.47
2023-02-17T04:09:26.205Z,27.77
2023-02-17T04:11:55.800Z,30.90
2023-02-17T04:14:24.060Z,25.53
2023-02-17T04:16:52.317Z,28.53
2023-02-17T04:19:21.349Z,25.90
2023-02-17T04:21:49.653Z,26.63
2023-02-17T04:24:17.911Z,26.50
2023-02-17T04:26:46.136Z,24.23
2023-02-17T04:29:15.784Z,26.10
2023-02-17T04:31:44.088Z,26.23
2023-02-17T04:34:12.561Z,24.60
2023-02-17T04:36:41.737Z,25.20
2023-02-17T04:39:11.135Z,25.30
2023-02-17T04:41:39.483Z,24.43
2023-02-17T04:44:07.916Z,23.40
2023-02-17T04:46:37.625Z,25.33
2023-02-17T04:49:05.926Z,25.53
2023-02-17T04:51:34.143Z,25.20
2023-02-17T04:54:02.372Z,25.10
2023-02-17T04:56:30.612Z,25.40
2023-02-17T04:58:58.868Z,24.17
2023-02-17T05:01:27.470Z,25.03
2023-02-17T05:03:57.170Z,25.47
2023-02-17T05:06:25.428Z,25.43
2023-02-17T05:08:54.306Z,24.03
2023-02-17T05:11:22.581Z,26.07
2023-02-17T05:13:50.800Z,25.57
2023-02-17T05:16:19.058Z,23.63
2023-02-17T05:18:47.407Z,25.13
2023-02-17T05:21:16.967Z,24.83
2023-02-17T05:23:45.226Z,23.30
2023-02-17T05:26:13.487Z,27.17
2023-02-17T05:28:41.759Z,27.13
2023-02-17T05:31:10.757Z,26.40
2023-02-17T05:33:39.084Z,23.70
2023-02-17T05:36:10.378Z,24.43
2023-02-17T05:38:40.905Z,26.47
2023-02-17T05:41:09.240Z,24.93
2023-02-17T05:43:37.498Z,23.33
2023-02-17T05:46:06.732Z,23.40
2023-02-17T05:48:35.838Z,23.17
2023-02-17T05:51:04.664Z,24.43
2023-02-17T05:53:33.353Z,28.43
2023-02-17T05:56:02.990Z,25.57
2023-02-17T05:58:31.281Z,25.23
2023-02-17T06:00:59.515Z,22.33
2023-02-17T06:03:27.779Z,24.93
2023-02-17T06:05:56.031Z,22.57
2023-02-17T06:08:24.248Z,21.60
2023-02-17T06:10:54.404Z,23.50
2023-02-17T06:13:24.082Z,22.93
2023-02-17T06:15:52.441Z,22.63
2023-02-17T06:18:20.974Z,25.23
2023-02-17T06:20:49.321Z,22.57
2023-02-17T06:23:17.701Z,23.70
2023-02-17T06:25:45.932Z,23.10
2023-02-17T06:28:14.260Z,23.63
2023-02-17T06:30:43.951Z,23.13
2023-02-17T06:33:12.198Z,23.87
2023-02-17T06:35:40.794Z,22.87
2023-02-17T06:38:09.117Z,23.53
2023-02-17T06:40:37.489Z,22.90
2023-02-17T06:43:07.340Z,23.23
2023-02-17T06:45:35.643Z,23.50
2023-02-17T06:48:05.578Z,24.40
2023-02-17T06:50:33.820Z,22.77
2023-02-17T06:53:02.076Z,23.40
2023-02-17T06:55:30.569Z,24.37
2023-02-17T06:57:58.804Z,23.47
2023-02-17T07:00:27.866Z,23.73
2023-02-17T07:02:56.186Z,23.60
2023-02-17T07:05:25.918Z,24.53
2023-02-17T07:07:56.006Z,24.33
2023-02-17T07:10:24.335Z,26.70
2023-02-17T07:12:53.053Z,23.77
2023-02-17T07:15:21.346Z,24.60
2023-02-17T07:17:49.748Z,24.80
2023-02-17T07:20:18.375Z,26.23
2023-02-17T07:22:48.024Z,25.60
2023-02-17T07:25:16.293Z,29.80
2023-02-17T07:27:44.569Z,26.73
2023-02-17T07:30:13.929Z,28.30
2023-02-17T07:32:42.241Z,27.70
2023-02-17T07:35:10.721Z,27.33
2023-02-17T07:37:39.025Z,28.37
2023-02-17T07:40:10.020Z,27.67
2023-02-17T07:42:38.314Z,28.03
2023-02-17T07:45:07.322Z,29.87
2023-02-17T07:47:35.551Z,28.57
2023-02-17T07:50:03.905Z,37.13
2023-02-17T07:52:32.181Z,28.37
2023-02-17T07:55:00.459Z,29.00
2023-02-17T07:57:30.084Z,27.50
2023-02-17T07:59:58.337Z,28.90
2023-02-17T08:02:26.628Z,28.00
2023-02-17T08:04:54.947Z,29.10
2023-02-17T08:07:23.187Z,25.27
2023-02-17T08:10:09.048Z,24.03
2023-02-17T08:12:55.940Z,29.47
2023-02-17T08:15:24.520Z,25.70
2023-02-17T08:17:53.219Z,27.73
2023-02-17T08:20:21.722Z,26.87
2023-02-17T08:22:49.930Z,29.60
2023-02-17T08:25:19.251Z,28.23
2023-02-17T08:27:48.820Z,31.43
2023-02-17T08:30:17.319Z,31.17
2023-02-17T08:32:47.647Z,28.37
2023-02-17T08:35:17.914Z,25.03
2023-02-17T08:37:46.219Z,25.20
2023-02-17T08:40:14.498Z,21.33
2023-02-17T08:42:42.792Z,22.77
2023-02-17T08:45:14.799Z,21.43
2023-02-17T08:47:43.225Z,15.63
2023-02-17T08:50:16.487Z,13.57
2023-02-17T08:52:44.802Z,14.03
2023-02-17T08:55:13.154Z,11.20
2023-02-17T08:57:41.413Z,8.57
2023-02-17T09:00:13.291Z,9.13
2023-02-17T09:02:43.525Z,7.80
2023-02-17T09:05:12.220Z,7.77
2023-02-17T09:07:40.888Z,5.90
2023-02-17T09:10:12.578Z,7.93
2023-02-17T09:12:41.614Z,7.07
2023-02-17T09:15:10.611Z,9.13
2023-02-17T09:17:42.570Z,6.60
2023-02-17T09:20:24.250Z,7.27
2023-02-17T09:22:54.144Z,8.17
2023-02-17T09:25:26.926Z,8.23
2023-02-17T09:27:55.198Z,8.90
2023-02-17T09:30:23.700Z,6.47
2023-02-17T09:32:53.500Z,6.53
2023-02-17T09:35:21.876Z,5.47
2023-02-17T09:37:50.391Z,6.33
2023-02-17T09:40:21.894Z,7.50
2023-02-17T09:42:50.372Z,6.10
2023-02-17T09:45:23.814Z,7.40
2023-02-17T09:47:56.739Z,6.23
2023-02-17T09:50:33.511Z,6.37
2023-02-17T09:53:09.324Z,5.97
2023-02-17T09:55:43.813Z,7.13
2023-02-17T09:58:18.815Z,5.97
2023-02-17T10:00:51.945Z,7.73
2023-02-17T10:03:31.023Z,7.67
2023-02-17T10:06:11.602Z,6.33
2023-02-17T10:08:47.703Z,6.13
2023-02-17T10:11:25.453Z,6.13
2023-02-17T10:13:56.751Z,6.27
2023-02-17T10:16:31.320Z,6.53
2023-02-17T10:19:06.236Z,4.53
2023-02-17T10:21:40.561Z,7.47
2023-02-17T10:24:09.174Z,6.77
2023-02-17T10:27:02.004Z,5.07
2023-02-17T10:29:41.607Z,5.07
2023-02-17T10:32:23.411Z,4.60
2023-02-17T10:35:14.534Z,5.90
2023-02-17T10:37:48.538Z,4.97
2023-02-17T10:40:22.272Z,7.57
2023-02-17T10:42:54.589Z,4.70
2023-02-17T10:45:35.082Z,6.00
2023-02-17T10:48:08.152Z,4.17
2023-02-17T10:50:39.517Z,4.70
2023-02-17T10:53:17.347Z,4.37
2023-02-17T10:55:55.651Z,6.47
2023-02-17T10:58:30.510Z,7.57
2023-02-17T11:00:59.310Z,5.90
2023-02-17T11:03:30.579Z,4.50
2023-02-17T11:06:02.758Z,7.23
2023-02-17T11:08:37.960Z,3.20
2023-02-17T11:11:15.780Z,4.67
2023-02-17T11:13:47.714Z,3.73
2023-02-17T11:16:27.418Z,7.23
2023-02-17T11:18:57.579Z,5.03
2023-02-17T11:21:29.591Z,3.13
2023-02-17T11:24:02.024Z,4.13
2023-02-17T11:26:32.877Z,4.43
2023-02-17T11:29:12.675Z,3.83
2023-02-17T11:31:41.087Z,4.03
2023-02-17T11:34:17.269Z,4.73
2023-02-17T11:36:47.129Z,3.83
2023-02-17T11:39:23.616Z,3.80
2023-02-17T11:41:51.911Z,4.63
2023-02-17T11:44:26.073Z,3.47
2023-02-17T11:47:07.703Z,3.13
2023-02-17T11:50:02.057Z,3.70
2023-02-17T11:52:50.534Z,5.77
2023-02-17T11:55:26.532Z,3.60
2023-02-17T11:58:13.617Z,4.73
2023-02-17T12:00:52.741Z,2.80
2023-02-17T12:03:53.253Z,4.50
2023-02-17T12:06:32.344Z,4.00
2023-02-17T12:09:14.741Z,2.90
2023-02-17T12:11:51.749Z,3.90
2023-02-17T12:15:01.723Z,4.07
2023-02-17T12:17:41.423Z,5.50
2023-02-17T12:20:32.810Z,2.80
2023-02-17T12:23:20.852Z,2.90
2023-02-17T12:25:56.958Z,5.03
2023-02-17T12:28:47.930Z,2.80
2023-02-17T12:31:34.342Z,3.83
2023-02-17T12:34:07.928Z,2.20
2023-02-17T12:36:40.099Z,2.53
2023-02-17T12:39:18.601Z,3.47
2023-02-17T12:41:52.873Z,5.37
2023-02-17T12:44:26.355Z,3.50
2023-02-17T12:46:58.663Z,5.27
2023-02-17T12:49:37.324Z,5.20
2023-02-17T12:52:12.234Z,5.97
2023-02-17T12:54:46.665Z,5.47
2023-02-17T12:57:23.849Z,6.37
2023-02-17T12:59:54.045Z,3.30
2023-02-17T13:02:24.501Z,3.20
2023-02-17T13:04:55.573Z,5.60
2023-02-17T13:07:44.708Z,2.77
2023-02-17T13:10:33.473Z,3.90
2023-02-17T13:13:07.498Z,3.50
2023-02-17T13:15:42.839Z,2.90
2023-02-17T13:18:16.070Z,3.50
2023-02-17T13:21:00.158Z,3.17
2023-02-17T13:23:40.216Z,4.00
2023-02-17T13:26:32.369Z,3.10
2023-02-17T13:29:37.254Z,2.67
2023-02-17T13:32:08.965Z,2.90
2023-02-17T13:34:39.804Z,3.87
2023-02-17T13:37:28.133Z,3.53
2023-02-17T13:39:56.470Z,12.10
2023-02-17T13:42:38.396Z,6.77
2023-02-17T13:45:25.442Z,6.50
2023-02-17T13:47:56.331Z,6.17
2023-02-17T13:50:35.245Z,8.93
2023-02-17T13:53:21.089Z,5.03
2023-02-17T13:55:49.562Z,8.10
2023-02-17T13:58:25.353Z,3.13
2023-02-17T14:00:55.484Z,4.67
2023-02-17T14:03:26.380Z,3.63
2023-02-17T14:05:56.619Z,2.40
2023-02-17T14:08:36.259Z,6.03
2023-02-17T14:11:10.854Z,2.63
2023-02-17T14:13:41.951Z,4.50
2023-02-17T14:16:31.552Z,7.13
2023-02-17T14:19:06.223Z,3.93
2023-02-17T14:21:35.501Z,4.83
2023-02-17T14:24:04.113Z,3.67
2023-02-17T14:26:38.186Z,4.20
2023-02-17T14:29:10.970Z,3.40
2023-02-17T14:31:43.068Z,3.47
2023-02-17T14:34:26.442Z,4.33
2023-02-17T14:36:54.756Z,5.07
2023-02-17T14:39:24.218Z,3.53
2023-02-17T14:41:52.482Z,3.97
2023-02-17T14:44:20.671Z,5.13
2023-02-17T14:46:50.526Z,6.40
2023-02-17T14:49:18.863Z,4.70
2023-02-17T14:51:47.111Z,4.53
2023-02-17T14:54:18.372Z,5.03
2023-02-17T14:56:53.052Z,3.83
2023-02-17T14:59:21.373Z,4.33
2023-02-17T15:01:51.081Z,3.23
2023-02-17T15:04:19.364Z,4.30
2023-02-17T15:06:50.651Z,5.47
2023-02-17T15:09:27.568Z,5.67
2023-02-17T15:11:57.313Z,3.80
2023-02-17T15:14:26.029Z,6.30
2023-02-17T15:16:55.815Z,5.90
2023-02-17T15:19:24.722Z,5.73
2023-02-17T15:21:53.687Z,5.63
2023-02-17T15:24:29.435Z,8.30
2023-02-17T15:26:58.919Z,9.80
2023-02-17T15:29:28.398Z,8.30
2023-02-17T15:32:01.693Z,8.27
2023-02-17T15:34:34.179Z,7.03
2023-02-17T15:37:02.989Z,6.57
2023-02-17T15:39:31.287Z,9.73
2023-02-17T15:42:05.269Z,6.10
2023-02-17T15:44:41.834Z,5.83
2023-02-17T15:47:16.953Z,5.97
2023-02-17T15:49:45.301Z,5.97
2023-02-17T15:52:15.291Z,4.67
2023-02-17T15:54:44.706Z,5.93
2023-02-17T15:57:23.992Z,6.17
2023-02-17T15:59:55.060Z,4.93
2023-02-17T16:02:26.709Z,5.33
2023-02-17T16:04:55.304Z,5.03
2023-02-17T16:07:23.589Z,4.53
2023-02-17T16:09:51.905Z,4.27
2023-02-17T16:12:26.755Z,5.43
2023-02-17T16:14:56.101Z,6.90
2023-02-17T16:17:27.012Z,15.57
2023-02-17T16:19:55.413Z,10.20
2023-02-17T16:22:23.804Z,9.67
2023-02-17T16:24:52.084Z,5.40
2023-02-17T16:27:20.469Z,16.30
2023-02-17T16:29:48.852Z,15.90
2023-02-17T16:32:17.228Z,9.43
2023-02-17T16:34:47.133Z,8.73
2023-02-17T16:37:18.745Z,6.97
2023-02-17T16:39:47.467Z,4.27
2023-02-17T16:42:16.186Z,6.07
2023-02-17T16:44:44.617Z,4.57
2023-02-17T16:47:22.666Z,3.77
2023-02-17T16:49:52.730Z,3.77
2023-02-17T16:52:26.128Z,4.57
2023-02-17T16:54:55.242Z,6.37
2023-02-17T16:57:24.874Z,5.40
2023-02-17T16:59:53.327Z,6.00
2023-02-17T17:02:22.221Z,3.97
2023-02-17T17:04:51.972Z,4.03
2023-02-17T17:07:20.293Z,4.53
2023-02-17T17:10:06.855Z,5.70
2023-02-17T17:12:37.097Z,5.03
2023-02-17T17:15:06.048Z,5.07
2023-02-17T17:17:41.529Z,5.50
2023-02-17T17:20:16.677Z,4.33
2023-02-17T17:22:46.712Z,5.30
2023-02-17T17:25:15.810Z,4.97
2023-02-17T17:27:46.019Z,4.23
2023-02-17T17:30:19.610Z,4.30
2023-02-17T17:32:48.513Z,3.93
2023-02-17T17:35:18.961Z,6.20
2023-02-17T17:37:48.220Z,6.23
2023-02-17T17:40:20.412Z,5.53
2023-02-17T17:42:48.821Z,5.33
2023-02-17T17:45:17.709Z,5.13
2023-02-17T17:47:46.444Z,6.93
2023-02-17T17:50:23.528Z,6.23
2023-02-17T17:52:52.373Z,5.33
2023-02-17T17:55:20.868Z,8.13
2023-02-17T17:57:49.240Z,5.77
2023-02-17T18:00:19.622Z,7.60
2023-02-17T18:02:47.986Z,4.30
2023-02-17T18:05:18.190Z,4.67
2023-02-17T18:07:48.949Z,6.70
2023-02-17T18:10:17.842Z,4.30
2023-02-17T18:12:47.895Z,4.07
2023-02-17T18:15:17.469Z,3.70
2023-02-17T18:17:46.931Z,3.43
2023-02-17T18:20:15.653Z,3.53
2023-02-17T18:22:45.617Z,4.17
2023-02-17T18:25:14.052Z,3.83
2023-02-17T18:27:45.301Z,8.70
2023-02-17T18:30:16.677Z,4.60
2023-02-17T18:32:45.230Z,6.23
2023-02-17T18:35:14.681Z,4.70
2023-02-17T18:37:45.970Z,3.90
2023-02-17T18:40:17.716Z,5.77
2023-02-17T18:42:46.639Z,5.20
2023-02-17T18:45:16.944Z,6.73
2023-02-17T18:47:46.298Z,3.97
2023-02-17T18:50:16.555Z,4.07
2023-02-17T18:52:46.260Z,3.00
2023-02-17T18:55:15.351Z,5.27
2023-02-17T18:57:45.386Z,5.00
2023-02-17T19:00:16.700Z,3.60
2023-02-17T19:02:45.417Z,7.57
2023-02-17T19:05:17.493Z,5.20
2023-02-17T19:07:47.294Z,6.20
2023-02-17T19:10:16.670Z,6.07
2023-02-17T19:12:45.076Z,7.10
2023-02-17T19:15:16.575Z,7.97
2023-02-17T19:17:45.628Z,9.47
2023-02-17T19:20:16.996Z,10.97
2023-02-17T19:22:46.822Z,8.87
2023-02-17T19:25:15.129Z,9.17
2023-02-17T19:27:43.493Z,12.43
2023-02-17T19:30:13.437Z,16.20
2023-02-17T19:32:42.000Z,12.37
2023-02-17T19:35:11.690Z,8.10
2023-02-17T19:37:40.173Z,8.50
2023-02-17T19:40:11.113Z,10.80
2023-02-17T19:42:40.325Z,10.73
2023-02-17T19:45:09.165Z,9.70
2023-02-17T19:47:37.492Z,12.63
2023-02-17T19:50:07.212Z,5.50
2023-02-17T19:52:35.496Z,12.73
2023-02-17T19:55:03.915Z,7.50
2023-02-17T19:57:33.558Z,6.87
2023-02-17T20:00:01.852Z,8.07
2023-02-17T20:02:30.200Z,8.03
2023-02-17T20:04:59.303Z,5.27
2023-02-17T20:07:27.707Z,7.27
2023-02-17T20:09:56.006Z,8.73
2023-02-17T20:12:24.271Z,6.80
2023-02-17T20:14:55.080Z,7.20
2023-02-17T20:17:23.302Z,6.83
2023-02-17T20:19:51.770Z,7.97
2023-02-17T20:22:20.794Z,7.87
2023-02-17T20:24:49.103Z,8.37
2023-02-17T20:27:17.647Z,9.27
2023-02-17T20:29:46.202Z,8.97
2023-02-17T20:32:15.927Z,7.63
2023-02-17T20:34:44.522Z,5.97
2023-02-17T20:37:13.096Z,4.30
2023-02-17T20:39:42.240Z,5.90
2023-02-17T20:42:10.981Z,6.87
2023-02-17T20:44:39.310Z,3.50
2023-02-17T20:47:07.687Z,6.03
2023-02-17T20:49:37.393Z,5.20
2023-02-17T20:52:06.801Z,4.23
2023-02-17T20:54:35.186Z,4.77
2023-02-17T20:57:04.246Z,5.13
2023-02-17T20:59:32.615Z,4.30
2023-02-17T21:02:00.893Z,4.00
2023-02-17T21:04:29.403Z,3.03
2023-02-17T21:07:01.293Z,4.90
2023-02-17T21:09:30.483Z,3.50
2023-02-17T21:11:58.691Z,2.90
2023-02-17T21:14:26.983Z,3.87
2023-02-17T21:16:55.376Z,4.70
2023-02-17T21:19:23.656Z,3.83
2023-02-17T21:21:52.050Z,3.67
2023-02-17T21:24:21.663Z,3.17
2023-02-17T21:26:49.977Z,3.23
2023-02-17T21:29:19.380Z,3.03
2023-02-17T21:31:47.778Z,3.87
2023-02-17T21:34:16.065Z,4.23
2023-02-17T21:36:44.307Z,3.43
2023-02-17T21:39:12.743Z,3.00
2023-02-17T21:41:44.405Z,3.63
2023-02-17T21:44:31.417Z,3.03
2023-02-17T21:46:59.699Z,2.93
2023-02-17T21:49:27.961Z,4.03
2023-02-17T21:51:56.250Z,3.63
2023-02-17T21:54:24.545Z,2.50
2023-02-17T21:56:54.219Z,4.07
2023-02-17T21:59:22.522Z,3.50
2023-02-17T22:01:51.914Z,3.13
2023-02-17T22:04:20.463Z,3.67
2023-02-17T22:06:48.916Z,4.10
2023-02-17T22:09:18.158Z,3.40
2023-02-17T22:11:47.698Z,3.43
2023-02-17T22:14:19.779Z,4.23
2023-02-17T22:16:49.755Z,4.43
2023-02-17T22:19:21.096Z,4.37
2023-02-17T22:21:50.920Z,3.00
2023-02-17T22:24:21.394Z,7.90
2023-02-17T22:26:50.273Z,3.17
2023-02-17T22:29:20.023Z,5.47
2023-02-17T22:31:50.424Z,3.07
2023-02-17T22:34:19.129Z,2.70
2023-02-17T22:36:47.408Z,3.00
2023-02-17T22:39:15.823Z,3.17
2023-02-17T22:41:44.112Z,2.53
2023-02-17T22:44:12.439Z,2.63
2023-02-17T22:46:42.129Z,3.87
2023-02-17T22:49:10.461Z,4.33
2023-02-17T22:51:40.829Z,4.77
2023-02-17T22:54:09.830Z,2.60
2023-02-17T22:56:38.922Z,3.50
2023-02-17T22:59:07.754Z,2.40
2023-02-17T23:01:37.691Z,2.40
2023-02-17T23:04:07.849Z,2.13
2023-02-17T23:06:38.835Z,2.57
2023-02-17T23:09:09.677Z,2.37
2023-02-17T23:11:54.017Z,3.77
2023-02-17T23:14:26.066Z,2.27
2023-02-17T23:16:57.233Z,2.57
2023-02-17T23:19:27.124Z,2.63
2023-02-17T23:21:58.880Z,2.67
2023-02-17T23:24:28.670Z,2.83
2023-02-17T23:26:59.934Z,3.10
2023-02-17T23:29:30.650Z,3.40
2023-02-17T23:31:59.717Z,2.40
2023-02-17T23:34:29.997Z,3.50
2023-02-17T23:36:58.657Z,6.60
2023-02-17T23:39:27.168Z,3.23
2023-02-17T23:41:55.498Z,2.37
2023-02-17T23:44:23.771Z,2.20
2023-02-17T23:46:52.035Z,2.40
2023-02-17T23:49:20.358Z,2.77
2023-02-17T23:51:50.056Z,2.27
2023-02-17T23:54:18.390Z,2.43
2023-02-17T23:56:46.746Z,3.07
2023-02-17T23:59:15.209Z,2.60
